createdAt,value
2022-08-18T00:02:29.997Z,3.75
2022-08-18T00:05:00.263Z,3.60
2022-08-18T00:07:30.538Z,4.20
2022-08-18T00:09:59.462Z,3.17
2022-08-18T00:12:39.847Z,3.60
2022-08-18T00:15:11.063Z,3.47
2022-08-18T00:17:38.782Z,3.28
2022-08-18T00:20:10.123Z,3.50
2022-08-18T00:22:39.902Z,3.65
2022-08-18T00:25:12.204Z,3.72
2022-08-18T00:27:41.415Z,3.53
2022-08-18T00:30:12.688Z,4.00
2022-08-18T00:32:43.152Z,3.62
2022-08-18T00:35:15.115Z,3.30
2022-08-18T00:37:43.144Z,3.53
2022-08-18T00:40:14.241Z,3.47
2022-08-18T00:42:54.207Z,3.58
2022-08-18T00:45:27.310Z,3.55
2022-08-18T00:47:55.317Z,3.45
2022-08-18T00:50:29.081Z,3.40
2022-08-18T00:53:03.641Z,3.70
2022-08-18T00:58:04.077Z,3.65
2022-08-18T01:00:33.131Z,3.87
2022-08-18T01:03:04.290Z,3.83
2022-08-18T01:05:43.342Z,4.10
2022-08-18T01:08:14.437Z,4.40
2022-08-18T01:10:42.765Z,4.12
2022-08-18T01:13:10.689Z,4.28
2022-08-18T01:15:38.232Z,4.37
2022-08-18T01:18:31.196Z,3.80
2022-08-18T01:21:29.329Z,4.60
2022-08-18T01:23:57.668Z,4.62
2022-08-18T01:26:27.008Z,4.25
2022-08-18T01:28:54.518Z,4.03
2022-08-18T01:31:37.636Z,4.35
2022-08-18T01:34:10.279Z,4.40
2022-08-18T01:36:40.623Z,4.40
2022-08-18T01:39:11.114Z,4.12
2022-08-18T01:41:40.499Z,4.15
2022-08-18T01:44:11.256Z,5.10
2022-08-18T01:46:41.612Z,4.30
2022-08-18T01:49:10.007Z,4.90
2022-08-18T01:51:40.565Z,4.70
2022-08-18T01:54:11.308Z,5.10
2022-08-18T01:56:39.027Z,5.15
2022-08-18T01:59:10.434Z,5.20
2022-08-18T02:01:45.293Z,5.28
2022-08-18T02:04:34.367Z,5.32
2022-08-18T02:07:04.436Z,5.22
2022-08-18T02:09:32.442Z,5.70
2022-08-18T02:12:01.974Z,5.62
2022-08-18T02:14:31.350Z,5.68
2022-08-18T02:17:02.659Z,5.78
2022-08-18T02:19:47.338Z,4.82
2022-08-18T02:22:18.550Z,4.05
2022-08-18T02:24:46.819Z,5.25
2022-08-18T02:27:15.187Z,5.45
2022-08-18T02:29:43.046Z,5.40
2022-08-18T02:32:10.745Z,6.20
2022-08-18T02:34:38.311Z,5.32
2022-08-18T02:37:06.082Z,5.40
2022-08-18T02:39:35.397Z,6.57
2022-08-18T02:42:03.098Z,5.30
2022-08-18T02:44:32.074Z,6.03
2022-08-18T02:46:59.769Z,6.85
2022-08-18T02:49:27.774Z,6.95
2022-08-18T02:51:55.509Z,6.70
2022-08-18T02:54:24.263Z,6.00
2022-08-18T02:56:52.785Z,6.05
2022-08-18T02:59:24.254Z,7.15
2022-08-18T03:01:53.849Z,7.53
2022-08-18T03:04:29.532Z,7.15
2022-08-18T03:07:00.834Z,7.78
2022-08-18T03:09:30.021Z,7.72
2022-08-18T03:11:58.286Z,7.15
2022-08-18T03:14:26.078Z,7.12
2022-08-18T03:16:55.281Z,7.30
2022-08-18T03:19:28.690Z,6.57
2022-08-18T03:22:03.223Z,7.82
2022-08-18T03:24:32.494Z,7.78
2022-08-18T03:27:03.406Z,8.10
2022-08-18T03:29:32.689Z,8.30
2022-08-18T03:32:02.214Z,7.93
2022-08-18T03:34:30.251Z,7.55
2022-08-18T03:36:58.175Z,6.62
2022-08-18T03:39:28.032Z,8.65
2022-08-18T03:42:00.190Z,7.40
2022-08-18T03:44:32.139Z,8.52
2022-08-18T03:47:01.582Z,8.95
2022-08-18T03:49:29.492Z,8.85
2022-08-18T03:52:00.154Z,8.57
2022-08-18T03:54:29.840Z,8.38
2022-08-18T03:56:57.688Z,7.70
2022-08-18T03:59:27.058Z,7.07
2022-08-18T04:01:55.281Z,7.87
2022-08-18T04:04:25.930Z,9.25
2022-08-18T04:06:58.443Z,8.68
2022-08-18T04:09:28.507Z,8.80
2022-08-18T04:11:57.024Z,8.75
2022-08-18T04:14:29.926Z,9.95
2022-08-18T04:16:58.439Z,9.20
2022-08-18T04:19:27.661Z,9.30
2022-08-18T04:21:57.640Z,8.38
2022-08-18T04:24:28.133Z,8.32
2022-08-18T04:26:59.750Z,8.90
2022-08-18T04:29:28.693Z,8.63
2022-08-18T04:31:56.387Z,9.00
2022-08-18T04:34:23.887Z,8.65
2022-08-18T04:36:54.945Z,9.10
2022-08-18T04:39:23.707Z,9.65
2022-08-18T04:41:51.891Z,9.13
2022-08-18T04:44:20.115Z,9.02
2022-08-18T04:46:51.899Z,9.48
2022-08-18T04:49:21.967Z,9.48
2022-08-18T04:52:40.158Z,8.88
2022-08-18T04:55:10.503Z,9.85
2022-08-18T04:57:38.965Z,9.10
2022-08-18T05:00:07.495Z,10.05
2022-08-18T05:02:35.465Z,9.32
2022-08-18T05:05:04.080Z,9.20
2022-08-18T05:07:32.069Z,10.50
2022-08-18T05:09:59.878Z,9.52
2022-08-18T05:12:28.385Z,9.70
2022-08-18T05:14:57.449Z,10.20
2022-08-18T05:17:30.052Z,9.48
2022-08-18T05:20:01.574Z,8.57
2022-08-18T05:22:40.796Z,9.93
2022-08-18T05:25:10.508Z,10.18
2022-08-18T05:27:43.161Z,9.88
2022-08-18T05:30:11.510Z,9.65
2022-08-18T05:32:48.501Z,10.70
2022-08-18T05:35:38.332Z,9.40
2022-08-18T05:38:19.275Z,10.00
2022-08-18T05:41:07.952Z,9.70
2022-08-18T05:43:51.965Z,8.83
2022-08-18T05:46:26.704Z,9.48
2022-08-18T05:48:54.432Z,9.93
2022-08-18T05:51:28.400Z,10.00
2022-08-18T05:54:14.826Z,9.25
2022-08-18T05:56:48.512Z,8.88
2022-08-18T05:59:20.792Z,9.20
2022-08-18T06:01:53.413Z,9.95
2022-08-18T06:04:39.074Z,9.75
2022-08-18T06:07:10.917Z,9.05
2022-08-18T06:09:40.674Z,9.18
2022-08-18T06:12:33.539Z,9.45
2022-08-18T06:15:28.626Z,8.45
2022-08-18T06:18:01.974Z,9.30
2022-08-18T06:20:51.817Z,9.52
2022-08-18T06:23:28.152Z,9.25
2022-08-18T06:26:16.997Z,9.50
2022-08-18T06:28:52.874Z,9.02
2022-08-18T06:31:40.846Z,8.20
2022-08-18T06:34:27.007Z,9.38
2022-08-18T06:37:27.794Z,8.82
2022-08-18T06:39:57.173Z,9.43
2022-08-18T06:42:30.550Z,8.98
2022-08-18T06:45:05.844Z,9.70
2022-08-18T06:47:41.286Z,9.80
2022-08-18T06:50:19.354Z,9.38
2022-08-18T06:52:59.838Z,8.50
2022-08-18T06:55:42.604Z,8.98
2022-08-18T06:58:13.667Z,7.87
2022-08-18T07:00:56.329Z,9.65
2022-08-18T07:03:36.510Z,9.30
2022-08-18T07:06:08.142Z,9.18
2022-08-18T07:08:42.657Z,8.65
2022-08-18T07:11:31.647Z,9.00
2022-08-18T07:14:23.396Z,9.27
2022-08-18T07:16:59.861Z,9.48
2022-08-18T07:19:30.643Z,9.27
2022-08-18T07:22:18.524Z,8.75
2022-08-18T07:24:51.462Z,8.98
2022-08-18T07:27:21.311Z,8.98
2022-08-18T07:30:15.948Z,8.57
2022-08-18T07:33:05.165Z,8.55
2022-08-18T07:35:43.448Z,8.25
2022-08-18T07:38:41.350Z,8.32
2022-08-18T07:41:15.356Z,8.57
2022-08-18T07:43:51.296Z,8.68
2022-08-18T07:46:39.420Z,8.43
2022-08-18T07:49:07.141Z,8.93
2022-08-18T07:51:45.457Z,8.15
2022-08-18T07:54:49.813Z,7.85
2022-08-18T07:57:28.803Z,7.32
2022-08-18T08:00:18.753Z,7.75
2022-08-18T08:03:12.864Z,7.47
2022-08-18T08:05:49.326Z,7.40
2022-08-18T08:08:32.009Z,9.25
2022-08-18T08:11:20.994Z,7.72
2022-08-18T08:14:10.473Z,7.85
2022-08-18T08:16:41.443Z,7.62
2022-08-18T08:19:59.986Z,7.85
2022-08-18T08:22:32.099Z,7.60
2022-08-18T08:25:22.353Z,7.47
2022-08-18T08:28:14.577Z,8.20
2022-08-18T08:31:33.261Z,7.37
2022-08-18T08:34:15.668Z,7.90
2022-08-18T08:36:46.439Z,7.25
2022-08-18T08:39:34.578Z,7.37
2022-08-18T08:42:30.571Z,8.25
2022-08-18T08:45:00.893Z,7.03
2022-08-18T08:47:33.220Z,7.57
2022-08-18T08:50:13.503Z,6.40
2022-08-18T08:52:57.141Z,7.68
2022-08-18T08:55:42.315Z,6.97
2022-08-18T08:58:17.017Z,7.22
2022-08-18T09:03:47.317Z,7.12
2022-08-18T09:06:17.842Z,6.68
2022-08-18T09:09:24.321Z,7.03
2022-08-18T09:11:57.710Z,6.78
2022-08-18T09:14:47.170Z,7.80
2022-08-18T09:17:40.913Z,6.90
2022-08-18T09:20:27.283Z,7.53
2022-08-18T09:23:03.918Z,6.28
2022-08-18T09:25:46.936Z,6.85
2022-08-18T09:28:20.324Z,6.20
2022-08-18T09:31:13.627Z,7.15
2022-08-18T09:36:48.302Z,6.82
2022-08-18T09:39:37.605Z,6.45
2022-08-18T09:42:12.918Z,6.53
2022-08-18T09:44:46.383Z,7.00
2022-08-18T09:47:27.396Z,6.68
2022-08-18T09:50:26.654Z,5.87
2022-08-18T09:53:04.421Z,6.70
2022-08-18T09:55:32.049Z,5.87
2022-08-18T09:58:18.237Z,5.95
2022-08-18T10:00:45.986Z,5.60
2022-08-18T10:03:25.856Z,6.10
2022-08-18T10:06:07.322Z,6.10
2022-08-18T10:09:18.178Z,5.78
2022-08-18T10:12:27.254Z,5.55
2022-08-18T10:15:27.203Z,5.68
2022-08-18T10:18:17.207Z,5.50
2022-08-18T10:21:09.325Z,5.35
2022-08-18T10:23:49.437Z,4.87
2022-08-18T10:26:31.910Z,4.85
2022-08-18T10:29:08.002Z,5.03
2022-08-18T10:31:58.609Z,5.43
2022-08-18T10:34:37.757Z,6.78
2022-08-18T10:40:13.585Z,4.90
2022-08-18T10:42:49.814Z,5.07
2022-08-18T10:45:30.846Z,5.87
2022-08-18T10:48:26.703Z,5.15
2022-08-18T10:51:09.037Z,5.10
2022-08-18T10:54:01.890Z,4.85
2022-08-18T10:56:36.647Z,4.75
2022-08-18T10:59:28.263Z,4.53
2022-08-18T11:02:11.521Z,5.10
2022-08-18T11:04:58.583Z,4.87
2022-08-18T11:07:30.989Z,4.78
2022-08-18T11:13:29.232Z,4.37
2022-08-18T11:16:10.393Z,4.57
2022-08-18T11:18:44.199Z,4.57
2022-08-18T11:21:30.636Z,4.70
2022-08-18T11:24:05.360Z,4.72
2022-08-18T11:26:38.854Z,4.55
2022-08-18T11:29:42.415Z,4.62
2022-08-18T11:32:25.209Z,4.50
2022-08-18T11:35:19.841Z,3.50
2022-08-18T11:38:04.908Z,4.25
2022-08-18T11:41:10.746Z,4.18
2022-08-18T11:43:41.045Z,3.83
2022-08-18T11:46:31.165Z,4.37
2022-08-18T11:49:01.393Z,3.70
2022-08-18T11:51:33.380Z,4.15
2022-08-18T11:54:24.335Z,4.20
2022-08-18T11:56:52.219Z,4.00
2022-08-18T11:59:53.860Z,4.50
2022-08-18T12:02:18.390Z,4.18
2022-08-18T12:04:50.790Z,4.47
2022-08-18T12:07:35.505Z,4.30
2022-08-18T12:10:28.847Z,4.62
2022-08-18T12:13:00.809Z,4.80
2022-08-18T12:15:43.765Z,4.00
2022-08-18T12:21:06.196Z,4.50
2022-08-18T12:23:38.591Z,4.68
2022-08-18T12:29:01.345Z,4.15
2022-08-18T12:34:24.907Z,4.50
2022-08-18T12:37:00.884Z,4.65
2022-08-18T12:41:57.642Z,3.97
2022-08-18T12:44:27.657Z,3.75
2022-08-18T12:46:56.024Z,4.25
2022-08-18T12:49:25.385Z,3.78
2022-08-18T12:51:57.528Z,3.80
2022-08-18T12:54:26.274Z,3.65
2022-08-18T12:56:56.019Z,3.40
2022-08-18T12:59:24.565Z,3.87
2022-08-18T13:01:58.629Z,3.50
2022-08-18T13:04:28.068Z,3.92
2022-08-18T13:07:04.708Z,3.53
2022-08-18T13:09:52.592Z,4.35
2022-08-18T13:12:24.004Z,3.85
2022-08-18T13:14:55.236Z,3.42
2022-08-18T13:17:33.172Z,3.53
2022-08-18T13:20:09.442Z,3.65
2022-08-18T13:22:40.556Z,4.10
2022-08-18T13:25:13.293Z,3.53
2022-08-18T13:28:02.021Z,3.45
2022-08-18T13:30:32.432Z,3.20
2022-08-18T13:33:05.455Z,3.92
2022-08-18T13:35:54.456Z,3.58
2022-08-18T13:38:26.090Z,3.20
2022-08-18T13:40:59.039Z,2.90
2022-08-18T13:43:34.472Z,3.67
2022-08-18T13:46:04.022Z,3.45
2022-08-18T13:48:32.963Z,3.70
2022-08-18T13:51:02.062Z,3.47
2022-08-18T13:53:31.528Z,3.55
2022-08-18T13:55:59.863Z,3.20
2022-08-18T13:58:28.769Z,3.20
2022-08-18T14:01:15.901Z,3.10
2022-08-18T14:03:47.876Z,4.07
2022-08-18T14:06:22.027Z,3.05
2022-08-18T14:08:53.143Z,3.87
2022-08-18T14:11:27.427Z,3.30
2022-08-18T14:14:01.900Z,3.22
2022-08-18T14:16:29.963Z,3.10
2022-08-18T14:19:17.806Z,3.30
2022-08-18T14:22:07.571Z,3.05
2022-08-18T14:25:00.657Z,3.50
2022-08-18T14:27:35.155Z,3.30
2022-08-18T14:30:08.771Z,2.87
2022-08-18T14:32:37.129Z,3.40
2022-08-18T14:35:33.919Z,3.03
2022-08-18T14:38:09.855Z,3.30
2022-08-18T14:40:43.022Z,2.60
2022-08-18T14:43:17.044Z,2.97
2022-08-18T14:45:49.176Z,2.90
2022-08-18T14:48:21.851Z,3.17
2022-08-18T14:50:52.559Z,2.47
2022-08-18T14:53:22.763Z,2.62
2022-08-18T14:55:52.684Z,3.00
2022-08-18T14:58:28.704Z,3.17
2022-08-18T15:00:58.101Z,2.70
2022-08-18T15:03:31.574Z,3.08
2022-08-18T15:06:04.720Z,2.45
2022-08-18T15:08:35.377Z,3.40
2022-08-18T15:11:11.308Z,2.95
2022-08-18T15:13:42.354Z,2.78
2022-08-18T15:16:13.545Z,3.47
2022-08-18T15:18:42.455Z,3.10
2022-08-18T15:21:38.279Z,3.05
2022-08-18T15:24:26.699Z,3.20
2022-08-18T15:26:56.696Z,3.33
2022-08-18T15:29:31.059Z,3.33
2022-08-18T15:32:05.069Z,2.55
2022-08-18T15:34:47.361Z,2.83
2022-08-18T15:37:24.102Z,2.95
2022-08-18T15:40:35.911Z,2.67
2022-08-18T15:43:10.257Z,3.03
2022-08-18T15:45:56.538Z,2.45
2022-08-18T15:48:27.245Z,3.03
2022-08-18T15:50:56.384Z,2.50
2022-08-18T15:53:29.709Z,3.08
2022-08-18T15:55:58.169Z,2.87
2022-08-18T15:58:31.620Z,2.85
2022-08-18T16:00:59.411Z,2.75
2022-08-18T16:03:29.206Z,2.83
2022-08-18T16:05:58.678Z,2.78
2022-08-18T16:08:27.780Z,3.08
2022-08-18T16:10:55.839Z,3.17
2022-08-18T16:13:26.323Z,3.35
2022-08-18T16:15:54.251Z,2.95
2022-08-18T16:18:21.784Z,3.00
2022-08-18T16:20:50.549Z,2.62
2022-08-18T16:23:20.546Z,3.85
2022-08-18T16:25:48.068Z,3.00
2022-08-18T16:28:15.634Z,2.80
2022-08-18T16:30:43.436Z,2.60
2022-08-18T16:33:11.110Z,3.45
2022-08-18T16:35:38.783Z,2.70
2022-08-18T16:38:08.902Z,2.55
2022-08-18T16:40:37.569Z,3.92
2022-08-18T16:43:07.297Z,2.83
2022-08-18T16:45:37.542Z,3.35
2022-08-18T16:48:08.290Z,3.17
2022-08-18T16:50:42.459Z,3.00
2022-08-18T16:53:10.166Z,2.92
2022-08-18T16:55:37.984Z,2.80
2022-08-18T16:58:24.521Z,3.10
2022-08-18T17:01:15.655Z,3.40
2022-08-18T17:04:13.630Z,3.35
2022-08-18T17:06:49.577Z,3.45
2022-08-18T17:09:18.386Z,3.28
2022-08-18T17:11:50.475Z,2.65
2022-08-18T17:16:55.069Z,3.30
2022-08-18T17:19:27.006Z,3.37
2022-08-18T17:21:54.678Z,3.35
2022-08-18T17:24:31.495Z,3.03
2022-08-18T17:27:12.210Z,3.17
2022-08-18T17:29:53.639Z,2.97
2022-08-18T17:32:28.342Z,3.40
2022-08-18T17:35:06.566Z,3.17
2022-08-18T17:37:36.926Z,3.58
2022-08-18T17:40:15.255Z,2.85
2022-08-18T17:42:43.314Z,3.65
2022-08-18T17:45:13.862Z,4.45
2022-08-18T17:48:04.766Z,4.80
2022-08-18T17:50:53.925Z,4.78
2022-08-18T17:53:22.550Z,3.40
2022-08-18T17:55:59.687Z,3.58
2022-08-18T17:58:34.045Z,3.92
2022-08-18T18:03:31.434Z,3.25
2022-08-18T18:06:09.259Z,3.85
2022-08-18T18:09:07.974Z,3.30
2022-08-18T18:11:38.988Z,3.53
2022-08-18T18:14:34.019Z,3.90
2022-08-18T18:17:30.431Z,3.58
2022-08-18T18:20:38.029Z,3.78
2022-08-18T18:23:15.907Z,3.58
2022-08-18T18:25:43.893Z,3.58
2022-08-18T18:28:33.869Z,3.42
2022-08-18T18:31:25.173Z,4.20
2022-08-18T18:33:58.361Z,3.95
2022-08-18T18:36:35.705Z,4.27
2022-08-18T18:39:15.504Z,4.22
2022-08-18T18:41:43.612Z,4.03
2022-08-18T18:44:13.336Z,4.00
2022-08-18T18:46:44.324Z,4.50
2022-08-18T18:49:29.218Z,4.00
2022-08-18T18:52:15.878Z,4.03
2022-08-18T18:55:01.443Z,4.68
2022-08-18T18:58:22.875Z,4.18
2022-08-18T19:00:55.811Z,3.75
2022-08-18T19:03:53.888Z,4.28
2022-08-18T19:06:44.028Z,3.75
2022-08-18T19:09:38.973Z,4.05
2022-08-18T19:12:35.164Z,3.62
2022-08-18T19:15:08.992Z,4.85
2022-08-18T19:17:42.583Z,3.10
2022-08-18T19:20:13.006Z,3.95
2022-08-18T19:22:59.170Z,3.85
2022-08-18T19:25:33.106Z,3.72
2022-08-18T19:28:13.046Z,3.50
2022-08-18T19:30:43.802Z,3.83
2022-08-18T19:33:15.789Z,4.47
2022-08-18T19:36:10.823Z,4.25
2022-08-18T19:39:11.804Z,4.37
2022-08-18T19:42:02.030Z,3.78
2022-08-18T19:44:32.463Z,4.55
2022-08-18T19:47:08.957Z,4.18
2022-08-18T19:49:48.481Z,4.12
2022-08-18T19:53:01.522Z,3.97
2022-08-18T19:55:56.004Z,4.15
2022-08-18T19:58:32.628Z,3.67
2022-08-18T20:01:02.920Z,4.18
2022-08-18T20:03:43.054Z,4.20
2022-08-18T20:06:35.897Z,4.35
2022-08-18T20:09:22.381Z,4.70
2022-08-18T20:12:04.709Z,4.57
2022-08-18T20:14:35.747Z,4.03
2022-08-18T20:17:09.524Z,4.87
2022-08-18T20:19:45.229Z,4.85
2022-08-18T20:22:24.898Z,4.75
2022-08-18T20:25:07.306Z,4.50
2022-08-18T20:27:49.424Z,4.87
2022-08-18T20:30:19.917Z,4.97
2022-08-18T20:33:10.966Z,5.05
2022-08-18T20:36:02.397Z,4.65
2022-08-18T20:38:57.474Z,5.75
2022-08-18T20:41:34.133Z,5.57
2022-08-18T20:44:29.873Z,4.97
2022-08-18T20:47:44.230Z,5.57
2022-08-18T20:50:31.661Z,6.25
2022-08-18T20:53:32.882Z,6.28
2022-08-18T20:56:32.257Z,5.22
2022-08-18T20:59:23.450Z,6.22
2022-08-18T21:01:55.607Z,5.97
2022-08-18T21:04:49.022Z,5.50
2022-08-18T21:07:19.070Z,5.55
2022-08-18T21:10:36.947Z,6.15
2022-08-18T21:13:05.707Z,6.65
2022-08-18T21:15:37.083Z,5.85
2022-08-18T21:18:19.644Z,6.40
2022-08-18T21:20:48.846Z,6.47
2022-08-18T21:23:33.637Z,6.35
2022-08-18T21:26:11.285Z,6.20
2022-08-18T21:28:40.341Z,6.05
2022-08-18T21:31:42.510Z,5.53
2022-08-18T21:34:33.298Z,6.40
2022-08-18T21:37:07.954Z,6.12
2022-08-18T21:39:47.775Z,6.12
2022-08-18T21:42:44.862Z,5.95
2022-08-18T21:45:21.909Z,6.40
2022-08-18T21:47:53.306Z,5.97
2022-08-18T21:50:26.935Z,6.40
2022-08-18T21:53:00.489Z,6.40
2022-08-18T21:55:33.267Z,6.57
2022-08-18T21:58:10.235Z,7.50
2022-08-18T22:00:43.351Z,6.75
2022-08-18T22:03:13.960Z,5.90
2022-08-18T22:05:58.142Z,6.25
2022-08-18T22:08:32.225Z,5.95
2022-08-18T22:11:57.228Z,6.70
2022-08-18T22:14:23.914Z,6.95
2022-08-18T22:17:31.726Z,7.20
2022-08-18T22:20:32.573Z,6.03
2022-08-18T22:23:24.236Z,6.00
2022-08-18T22:25:52.387Z,6.97
2022-08-18T22:28:24.414Z,7.60
2022-08-18T22:30:55.172Z,6.18
2022-08-18T22:33:23.506Z,5.95
2022-08-18T22:35:57.941Z,6.65
2022-08-18T22:38:26.652Z,6.68
2022-08-18T22:40:54.141Z,6.50
2022-08-18T22:43:21.988Z,6.62
2022-08-18T22:45:49.737Z,6.72
2022-08-18T22:48:17.362Z,6.82
2022-08-18T22:50:46.303Z,6.50
2022-08-18T22:53:14.413Z,6.28
2022-08-18T22:55:42.002Z,7.45
2022-08-18T22:58:09.969Z,6.60
2022-08-18T23:00:39.201Z,6.22
2022-08-18T23:03:09.841Z,7.00
2022-08-18T23:05:37.479Z,5.97
2022-08-18T23:08:05.639Z,6.45
2022-08-18T23:10:33.215Z,6.43
2022-08-18T23:13:04.199Z,7.28
2022-08-18T23:15:47.698Z,6.72
2022-08-18T23:18:19.146Z,7.35
2022-08-18T23:20:48.821Z,8.02
2022-08-18T23:23:18.142Z,6.82
2022-08-18T23:25:45.749Z,6.53
2022-08-18T23:28:13.617Z,7.10
2022-08-18T23:30:41.187Z,6.18
2022-08-18T23:33:10.485Z,7.55
2022-08-18T23:35:38.550Z,7.00
2022-08-18T23:38:08.803Z,6.12
2022-08-18T23:40:37.561Z,6.78
2022-08-18T23:43:06.835Z,7.55
2022-08-18T23:45:35.861Z,7.00
2022-08-18T23:48:03.821Z,6.87
2022-08-18T23:50:32.868Z,7.43
2022-08-18T23:53:02.830Z,7.75
2022-08-18T23:55:30.511Z,6.68
2022-08-18T23:57:58.378Z,7.10
